Résultats événements

18/11/2017 Cross SDIS 25-3km




Arrivée
Categorie:

Clt Temps de course Nom Dos Cat Temps sur l'intervalle Clt int. Gain
1 00:13:06 BLAISE ELIOTT 318 MINIME M 00:13:06 1
2 00:13:06 PERREIRA HUGO 410 MINIME M 00:13:06 2
3 00:13:36 MOUCHART KEVIN 396 MINIME M 00:13:36 3
4 00:13:36 MORONI PIERRE 395 MINIME M 00:13:36 4
5 00:13:46 BORNARD ALEX 320 MINIME M 00:13:46 5
6 00:13:49 GUERIN MATHIS 362 MINIME M 00:13:49 6
7 00:14:17 DESARMENIEN THIERRY 345 MINIME M 00:14:17 7
8 00:14:17 ROUILLER JULES 429 MINIME M 00:14:17 8
9 00:14:21 FICHET MATISSE 350 MINIME M 00:14:21 9
10 00:14:24 BERTOT JORIAN 316 MINIME M 00:14:24 10
11 00:14:28 ROY LAURA 292 CADET F 00:14:28 11
12 00:14:40 CARNET FLORIN 328 MINIME M 00:14:40 12
13 00:14:46 ARNOUX NICOLAS 311 MINIME M 00:14:46 13
14 00:14:55 CARBONI ROMAIN 326 MINIME M 00:14:55 14
15 00:14:56 HERREN NICOLAS 366 MINIME M 00:14:56 15
16 00:14:59 LEMOINE EDOUARD 383 MINIME M 00:14:59 16
17 00:14:59 SALIMI JALIL 431 MINIME M 00:14:59 17
18 00:14:59 RIDOU HUGO 423 MINIME M 00:14:59 18
19 00:15:00 LAMBERT TOM 377 MINIME M 00:15:00 19
20 00:15:06 POIRSON SIMON 418 MINIME M 00:15:06 20
21 00:15:07 KORJAT AXEL 376 MINIME M 00:15:07 21
22 00:15:07 BASSIGNOT CELIA 249 CADET F 00:15:07 22
23 00:15:07 BOUSSARD ELSA 253 CADET F 00:15:07 23
24 00:15:08 PLANTEJENET YOHAN 417 MINIME M 00:15:08 24
25 00:15:08 MINGHI LOUIS 394 MINIME M 00:15:08 25
26 00:15:19 RABBY RAYAN 422 MINIME M 00:15:19 26
27 00:15:20 CARDOT NICOLAS 327 MINIME M 00:15:20 27
28 00:15:21 JACQUEMAIN TITOUAN 371 MINIME M 00:15:21 28
29 00:15:26 COSSET AXEL 339 MINIME M 00:15:26 29
30 00:15:33 RIVIERE JOAN 424 MINIME M 00:15:33 30
31 00:15:37 JOUGLET BILLY 375 MINIME M 00:15:37 31
32 00:15:39 JOLY MANON 273 CADET F 00:15:39 32
33 00:15:39 MENDEZ HUGO 391 MINIME M 00:15:39 33
34 00:15:42 TOURNIER CORENTIN 440 MINIME M 00:15:42 34
35 00:15:44 BRUTILLOT CÉLIA 256 CADET F 00:15:44 35
36 00:15:44 TISSOT JONATHAN 438 MINIME M 00:15:44 36
37 00:15:45 CUCHE HÉLOÏSE 455 MINIME F 00:15:45 37
38 00:15:51 GUILLEMIN-LABORNE JUSTIN 364 MINIME M 00:15:51 38
39 00:16:02 POURNY THIBAULT 420 MINIME M 00:16:02 39
40 00:16:02 CRETENET LOUIS 341 MINIME M 00:16:02 40
41 00:16:02 BORRE CÉDRIC 321 MINIME M 00:16:02 41
42 00:16:05 PONS-MADI DRAYANE 419 MINIME M 00:16:05 42
43 00:16:06 GAGNEPAIN CHARLOTTE 265 CADET F 00:16:06 43
44 00:16:08 BOTELLA LEO 322 MINIME M 00:16:08 44
45 00:16:12 SAUNIER MATHIAS 433 MINIME M 00:16:12 45
46 00:16:18 FONTANILLAS PABLO 351 MINIME M 00:16:18 46
47 00:16:21 RICHARD ILONA 481 MINIME F 00:16:21 47
48 00:16:22 CUVILLIER MELAINE 258 CADET F 00:16:22 48
49 00:16:25 AZERMI BRAHIM 312 MINIME M 00:16:25 49
50 00:16:32 SIKIC JULIETTE 271 CADET F 00:16:32 50
51 00:16:34 JEANNIER MARTIN 374 MINIME M 00:16:34 51
52 00:16:43 BOSCHAT OCEANE 251 CADET F 00:16:43 52
53 00:16:44 GAUTHEROT BASTIEN 355 MINIME M 00:16:44 53
54 00:16:45 BOURET LOÎC 323 MINIME M 00:16:45 54
55 00:16:47 GALAND NOAH 354 MINIME M 00:16:47 55
56 00:16:49 COURTOIS DEBORAH 301 JUNIOR F 00:16:49 56
57 00:16:49 MEILLET EVA 285 CADET F 00:16:49 57
58 00:17:03 MULLER ENZO 402 MINIME M 00:17:03 58
59 00:17:05 HUOT CLEMENT 369 MINIME M 00:17:05 59
60 00:17:07 MARGUET ENZO 389 MINIME M 00:17:07 60
61 00:17:08 CLERC EDGAR 336 MINIME M 00:17:08 61
62 00:17:14 CATTIN MARVIN 330 MINIME M 00:17:14 62
63 00:17:17 LAURENT YOANNS 379 MINIME M 00:17:17 63
64 00:17:21 LAPERGUE ENZO 378 MINIME M 00:17:21 64
65 00:17:25 DONZE LYDYE 457 MINIME F 00:17:25 65
66 00:17:25 VECLAIN CLÉMENT 441 MINIME M 00:17:25 66
67 00:17:27 MASSIN PAULINE 472 MINIME F 00:17:27 67
68 00:17:30 MAIROT CECILIA 282 CADET F 00:17:30 68
69 00:17:33 LEVA JULES 384 MINIME M 00:17:33 70
70 00:17:33 DODIN MARGOT 262 CADET F 00:17:33 69
71 00:17:33 AUBRY ILIANA 450 MINIME F 00:17:33 71
72 00:17:37 CONGRETEL ALEXIS 338 MINIME M 00:17:37 72
73 00:17:39 VIENNET VANESSA 295 CADET F 00:17:39 73
74 00:17:42 MUGGEO THIBAULT 401 MINIME M 00:17:42 74
75 00:17:46 DIEULOT LOUISE 261 CADET F 00:17:46 75
76 00:17:46 CHALONS MATHÉO 331 MINIME M 00:17:46 76
77 00:17:51 CANCEDDA-EMERY LISON 454 MINIME F 00:17:51 77
78 00:17:53 ROUSSELET SARAH 485 MINIME F 00:17:53 78
79 00:18:02 FOLTETE ALIZÉE 458 MINIME F 00:18:02 79
80 00:18:03 HUART CLARA 463 MINIME F 00:18:03 80
81 00:18:05 SAILLARD LOAN 430 MINIME M 00:18:05 81
82 00:18:06 ROSIER LILIAN 427 MINIME M 00:18:06 82
83 00:18:08 GOMEZ NOHAN 358 MINIME M 00:18:08 83
84 00:18:09 RICHARD JUSTINE 482 MINIME F 00:18:09 84
85 00:18:19 OLERON ERWAN 407 MINIME M 00:18:19 85
86 00:18:27 GREMBER LUC 360 MINIME M 00:18:27 86
87 00:18:30 SPILLEBOUT TRISTAN 436 MINIME M 00:18:30 87
88 00:18:40 HOTTELART TÉO 367 MINIME M 00:18:40 88
89 00:18:43 GOUVIER LOUIS 359 MINIME M 00:18:43 90
90 00:18:43 GOUVIER LEA 303 JUNIOR F 00:18:43 89
91 00:18:48 JEANNEY BAPTISTE 373 MINIME M 00:18:48 91
92 00:18:50 MAZURIÉ ALICE 284 CADET F 00:18:50 92
93 00:18:56 TOURNIER ISALINE 274 CADET F 00:18:56 93
94 00:18:56 PERNOT OCÉANE 476 MINIME F 00:18:56 94
95 00:18:56 ROSIER ALEXIS 426 MINIME M 00:18:56 95
96 00:19:04 GIRARDET MATHIS 357 MINIME M 00:19:04 96
97 00:19:05 MERCET LILIAN 392 MINIME M 00:19:05 97
98 00:19:06 PIGUET ALEXANDRE 415 MINIME M 00:19:06 98
99 00:19:08 RUEZ JADE 487 MINIME F 00:19:08 99
100 00:19:08 DAVID BILLY 343 MINIME M 00:19:08 100
101 00:19:10 BETRANCOURT VINCENT 317 MINIME M 00:19:10 101
102 00:19:11 GRILLON SARAH 460 MINIME F 00:19:11 102
103 00:19:14 FANIART ANGEL 348 MINIME M 00:19:14 103
104 00:19:14 TOURAISIN LOIC 439 MINIME M 00:19:14 104
105 00:19:15 LACLEF FANNY 275 CADET F 00:19:15 105
106 00:19:18 LEFEBVRE CLARA 307 JUNIOR F 00:19:18 106
107 00:19:19 GALLECIER CAROLINE 302 JUNIOR F 00:19:19 107
108 00:19:20 HUOT EMILIEN 368 MINIME M 00:19:20 108
109 00:19:22 AUBRY CLARA 299 JUNIOR F 00:19:22 109
110 00:19:27 CHALONS MAXENCE 332 MINIME M 00:19:27 110
111 00:19:28 GIMENEZ OLIVARES LUIS JÉROME 356 MINIME M 00:19:28 111
112 00:19:28 PERSONENI SYLVAIN 411 MINIME M 00:19:28 112
113 00:19:30 VUITTON DAMIEN 444 MINIME M 00:19:30 113
114 00:19:31 JEANNINGROS JADE 272 CADET F 00:19:31 114
115 00:19:32 JUNOD SUZANNE 466 MINIME F 00:19:32 115
116 00:19:33 FOUREL YOHAN 352 MINIME M 00:19:33 116
117 00:19:33 PIQUARD NATHAN 416 MINIME M 00:19:33 117
118 00:19:34 JARMELOT KERYANN 372 MINIME M 00:19:34 118
119 00:19:41 JACKOWSKI SAMUEL 370 MINIME M 00:19:41 119
120 00:19:44 BENOIT REVAN 315 MINIME M 00:19:44 120
121 00:19:47 PICON MATHIS 413 MINIME M 00:19:47 123
122 00:19:47 SIMON ALEXANDRE 435 MINIME M 00:19:47 121
123 00:19:47 SALVI ROMAIN 432 MINIME M 00:19:47 122
124 00:19:47 LASSOUT SORAYA 278 CADET F 00:19:47 124
125 00:19:47 LECLERCQ EWAN 381 MINIME M 00:19:47 125
126 00:19:48 BARBERA LÉO 313 MINIME M 00:19:48 126
127 00:19:53 MARTIN TOM 390 MINIME M 00:19:53 127
128 00:19:57 BELIN ARTHUR 314 MINIME M 00:19:57 128
129 00:19:59 PERSONNE CELESTE 288 CADET F 00:19:59 129
130 00:20:05 CAPELLI MATTEO 325 MINIME M 00:20:05 130
131 00:20:05 CREPY BANFIN THÉO 340 MINIME M 00:20:05 131
132 00:20:08 PARRENIN ENZO 409 MINIME M 00:20:08 132
133 00:20:09 MOUGINOT GABRIEL 399 MINIME M 00:20:09 133
134 00:20:09 DZIADZUSKA MAXIME 347 MINIME M 00:20:09 134
135 00:20:14 RICLOUX SARAH 291 CADET F 00:20:14 135
136 00:20:23 CHAMBLAY REMY 333 MINIME M 00:20:23 136
137 00:20:24 CHIOCCA BASTIEN 334 MINIME M 00:20:24 137
138 00:20:26 FOREST JADE 264 CADET F 00:20:26 138
139 00:20:30 MILLOT LUCAS 393 MINIME M 00:20:30 140
140 00:20:30 LOCATELLI ILONA 470 MINIME F 00:20:30 139
141 00:20:44 LAURENT ALBIN 380 MINIME M 00:20:44 141
142 00:20:44 PAGET MATHEO 408 MINIME M 00:20:44 142
143 00:20:54 LEGRAND LOUIS 382 MINIME M 00:20:54 143
144 00:20:54 FUSIER LÉANE 459 MINIME F 00:20:54 144
145 00:20:56 REGNIER LUCIE 269 CADET F 00:20:56 145
146 00:21:01 JOURNOT OCÉANE 465 MINIME F 00:21:01 146
147 00:21:05 DUDO NICOLAS 346 MINIME M 00:21:05 147
148 00:21:12 MOREL PHIONA 474 MINIME F 00:21:12 148
149 00:21:15 BASSENNE FLAVY 248 CADET F 00:21:15 149
150 00:21:16 HEBERT ANDREAS 461 MINIME F 00:21:16 150
151 00:21:24 BOURGEOIS TESSA 252 CADET F 00:21:24 151
152 00:21:30 TAKORABET MÉLYAN 437 MINIME M 00:21:30 152
153 00:21:38 LAMBRECHTS ENOLA 276 CADET F 00:21:38 153
154 00:21:41 FERRAIRA WILLIAM 349 MINIME M 00:21:41 154
155 00:21:46 ROUSSEL-GALLE NOÉMIE 486 MINIME F 00:21:46 155
156 00:21:52 REQUET LOU 290 CADET F 00:21:52 156
157 00:22:05 KELLER EMILIE 304 JUNIOR F 00:22:05 157
158 00:22:06 MARTINOL LAURA 308 JUNIOR F 00:22:06 158
159 00:22:10 CARREY THOMAS 329 MINIME M 00:22:10 159
160 00:22:18 SAMY CLARA 488 MINIME F 00:22:18 160
161 00:22:27 DA COSTA LAETITIA 456 MINIME F 00:22:27 161
162 00:22:35 CLAEYS AXEL 335 MINIME M 00:22:35 162
163 00:22:42 GROSSOT LUCAS 361 MINIME M 00:22:42 163
164 00:22:50 ROTELLA TONY 428 MINIME M 00:22:50 164
165 00:22:52 BARTHET OCEANE 452 MINIME F 00:22:52 165
166 00:22:53 VOUILLOT ELINE 491 MINIME F 00:22:53 166
167 00:22:54 BARTHET MARION 453 MINIME F 00:22:54 167
168 00:22:57 PERRET LÉA 477 MINIME F 00:22:57 168
169 00:22:58 MOREL JUSTINE 473 MINIME F 00:22:58 169
170 00:22:58 GWINNER TIM 365 MINIME M 00:22:58 170
171 00:23:08 MARCAIRE AXELLE 267 CADET F 00:23:08 171
172 00:23:12 BAGUE CELIA 451 MINIME F 00:23:12 172
173 00:23:13 LANGONNIER MAEVA 277 CADET F 00:23:13 173
174 00:23:20 SCHMOCKER SOLENN 489 MINIME F 00:23:20 174
175 00:23:23 CHAUMARD ELODIE 300 JUNIOR F 00:23:23 175
176 00:23:30 PHILIPPE ALEXIA 478 MINIME F 00:23:30 176
177 00:23:31 LORY MARINE 281 CADET F 00:23:31 177
178 00:23:47 CROTET JIMMY 342 MINIME M 00:23:47 178
179 00:24:14 HEMERY JULIA 462 MINIME F 00:24:14 179
180 00:24:14 ROSE YANIS 425 MINIME M 00:24:14 180
181 00:24:23 PRUNEAU MANON 480 MINIME F 00:24:23 181
182 00:24:30 PATOIS IRINA 475 MINIME F 00:24:30 182
183 00:24:31 BOBILLIER FABIEN 319 MINIME M 00:24:31 183
184 00:25:38 JOUILLEROT ELENA 464 MINIME F 00:25:38 184
185 00:25:49 LIMANI SOFIA 469 MINIME F 00:25:49 185
186 00:25:49 NGUYEN THÉO 404 MINIME M 00:25:49 186
187 00:26:26 NEDEY ALEXIS 403 MINIME M 00:26:26 187
188 00:27:08 CHAY JENIFER 257 CADET F 00:27:08 188
189 00:27:15 ROUGEOT MAËLYS 484 MINIME F 00:27:15 189
190 00:27:32 PIERROT JAROD 414 MINIME M 00:27:32 190
191 00:27:48 GUILLIER MARIE-ANNE 268 CADET F 00:27:48 191
192 00:27:49 POWOLNY MAÉLISS 479 MINIME F 00:27:49 192


Restez connectés à vos performances